Sainte-Agathe, Canada
Current Conditions -  °F | °C
As of 4:00 AM on Sunday 21 Dec 2014 (Local Time) from CYMX Reporting Station
Overcast Overcast  
Wind Chill: 12°   Ceiling: 800
Heat Index: 12°   Visibility: 8mi
Dew Point:   Wind: 3mph
Humidity: 85%   Direction: 60°ENE
Pressure: 30.36"   Gusts: NA
Location:  46.03°N, 74.28°W
Report Text: CYMX 210900Z 06003KT 8SM FEW004 OVC008 M11/M13 A3036 RMK SF2SF6 SLP286
Loading
Personal Weather Stations






























Interactive Weather Map New forecast layout! Learn more

10-Day Weather Forecast

Advertisements
Track Severe Weather on mobile